Time;durP1;ratioP1;P1;durP2;ratioP2;P2;SDS_P1;SDS_P2;PMS_P1;PMS_P2;Temp;Humidity;BMP_temperature;BMP_pressure;BME280_temperature;BME280_humidity;BME280_pressure;Samples;Min_cycle;Max_cycle;Signal;HPM_P1;HPM_P2
2023/03/25 00:00:58;;;;;;;12.85;2.22;;;10.20;99.90;;;;;;5088431;27;20042;-81
2023/03/25 00:03:34;;;;;;;19.88;3.22;;;10.30;99.90;;;;;;5089992;27;20164;-81
2023/03/25 00:06:00;;;;;;;17.48;2.25;;;10.20;99.90;;;;;;5107003;27;20078;-80
2023/03/25 00:08:26;;;;;;;20.83;3.00;;;10.30;99.90;;;;;;5105492;28;20042;-81
2023/03/25 00:10:53;;;;;;;18.15;2.65;;;10.20;99.90;;;;;;5073634;28;20039;-80
2023/03/25 00:13:20;;;;;;;15.77;2.90;;;10.30;99.90;;;;;;5088483;27;20043;-80
2023/03/25 00:15:46;;;;;;;20.90;2.90;;;10.70;99.90;;;;;;5106969;28;20356;-81
2023/03/25 00:18:13;;;;;;;16.40;2.63;;;10.60;99.90;;;;;;5088717;28;20043;-80
2023/03/25 00:20:39;;;;;;;16.13;2.78;;;10.20;99.90;;;;;;5106015;28;20031;-81
2023/03/25 00:23:08;;;;;;;17.88;2.20;;;10.50;99.90;;;;;;5106749;28;20041;-80
2023/03/25 00:25:34;;;;;;;18.55;2.42;;;10.20;99.90;;;;;;5088350;28;20108;-80
2023/03/25 00:28:00;;;;;;;14.30;2.40;;;10.20;99.90;;;;;;5089814;27;20039;-79
2023/03/25 00:30:25;;;;;;;24.30;2.67;;;10.20;99.90;;;;;;5105277;28;20101;-80
2023/03/25 00:32:51;;;;;;;20.70;3.13;;;10.20;99.90;;;;;;5089235;28;20041;-80
2023/03/25 00:35:22;;;;;;;12.63;2.15;;;10.20;99.90;;;;;;5089123;28;20057;-80
2023/03/25 00:37:58;;;;;;;15.25;2.03;;;10.20;99.90;;;;;;5124634;28;20104;-81
2023/03/25 00:40:33;;;;;;;14.65;1.73;;;10.10;99.90;;;;;;5110301;27;20035;-79
2023/03/25 00:43:01;;;;;;;15.07;1.92;;;10.10;99.90;;;;;;5075829;27;20061;-80
2023/03/25 00:45:27;;;;;;;21.75;2.70;;;10.20;99.90;;;;;;5093766;27;20037;-79
2023/03/25 00:47:53;;;;;;;15.95;2.45;;;10.00;99.90;;;;;;5092602;27;20395;-80
2023/03/25 00:50:20;;;;;;;22.92;3.45;;;10.00;99.90;;;;;;5110573;27;20043;-80
2023/03/25 00:52:47;;;;;;;15.60;2.03;;;9.90;99.90;;;;;;5110272;27;20082;-79
2023/03/25 00:55:12;;;;;;;15.60;3.13;;;9.90;99.90;;;;;;5109679;27;20086;-80
2023/03/25 00:57:38;;;;;;;20.25;3.05;;;9.90;99.90;;;;;;5093694;27;20066;-80
2023/03/25 01:00:07;;;;;;;20.17;2.28;;;10.00;99.90;;;;;;5108802;27;20130;-80
2023/03/25 01:02:33;;;;;;;14.70;1.65;;;9.90;99.90;;;;;;5093640;27;20136;-80
2023/03/25 01:04:59;;;;;;;17.10;3.10;;;9.90;99.90;;;;;;5074737;27;20076;-80
2023/03/25 01:07:28;;;;;;;19.75;2.78;;;9.90;99.90;;;;;;5092624;27;20043;-80
2023/03/25 01:09:58;;;;;;;28.23;3.55;;;9.90;99.90;;;;;;5092476;27;20039;-80
2023/03/25 01:12:25;;;;;;;17.83;2.25;;;9.80;99.90;;;;;;5108691;27;20043;-80
2023/03/25 01:14:51;;;;;;;15.35;2.33;;;10.10;99.90;;;;;;5110642;27;20133;-80
2023/03/25 01:17:17;;;;;;;16.23;2.75;;;9.80;99.90;;;;;;5091563;27;20046;-80
2023/03/25 01:19:44;;;;;;;13.90;2.53;;;9.70;99.90;;;;;;5109777;27;20108;-80
2023/03/25 01:22:10;;;;;;;16.02;2.70;;;9.70;99.90;;;;;;5091224;27;20051;-80
2023/03/25 01:24:36;;;;;;;26.92;3.95;;;9.80;99.90;;;;;;5092634;27;20095;-80
2023/03/25 01:27:03;;;;;;;22.92;4.88;;;10.20;99.90;;;;;;5092518;27;20045;-80
2023/03/25 01:29:29;;;;;;;16.33;2.78;;;9.60;99.90;;;;;;5108388;27;20173;-79
2023/03/25 01:31:55;;;;;;;22.02;2.47;;;9.60;99.90;;;;;;5128681;27;20046;-80
2023/03/25 01:34:21;;;;;;;27.45;3.33;;;9.80;99.90;;;;;;5108220;27;20050;-80
2023/03/25 01:36:47;;;;;;;19.45;2.95;;;10.50;99.90;;;;;;5128693;27;20266;-80
2023/03/25 01:39:15;;;;;;;21.52;3.25;;;10.20;99.90;;;;;;5108536;27;20039;-80
2023/03/25 01:41:42;;;;;;;19.92;2.65;;;9.50;99.90;;;;;;5127746;27;20130;-80
2023/03/25 01:44:20;;;;;;;16.00;2.65;;;9.50;99.90;;;;;;5092557;27;20435;-80
2023/03/25 01:46:47;;;;;;;18.50;2.70;;;9.50;99.90;;;;;;5108957;27;20465;-80
2023/03/25 01:49:43;;;;;;;16.70;2.70;;;8.90;99.90;;;;;;5128500;27;20047;-80
2023/03/25 01:52:20;;;;;;;28.83;3.22;;;9.60;99.90;;;;;;5107179;27;20401;-80
2023/03/25 01:54:49;;;;;;;25.73;2.95;;;9.40;99.90;;;;;;5108511;27;20046;-81
2023/03/25 01:57:19;;;;;;;32.63;5.68;;;9.40;99.90;;;;;;5109524;27;20444;-80
2023/03/25 01:59:45;;;;;;;19.48;2.95;;;9.30;99.90;;;;;;5107728;27;20070;-80
2023/03/25 02:02:14;;;;;;;27.42;3.75;;;9.30;99.90;;;;;;5109425;27;20051;-81
2023/03/25 02:04:57;;;;;;;23.60;2.90;;;9.60;99.90;;;;;;5107510;27;20051;-81
2023/03/25 02:07:29;;;;;;;25.55;3.75;;;9.30;99.90;;;;;;5109069;27;20051;-81
2023/03/25 02:09:57;;;;;;;27.02;4.55;;;10.40;99.90;;;;;;5108526;27;20114;-81
2023/03/25 02:12:24;;;;;;;12.65;2.45;;;9.20;99.90;;;;;;5107712;27;20039;-81
2023/03/25 02:14:50;;;;;;;24.35;3.80;;;9.20;99.90;;;;;;5109904;27;20039;-82
2023/03/25 02:17:36;;;;;;;27.67;4.68;;;9.10;99.90;;;;;;5107165;27;20082;-82
2023/03/25 02:20:23;;;;;;;22.27;3.55;;;9.10;99.90;;;;;;5108995;27;20427;-82
2023/03/25 02:23:01;;;;;;;28.67;3.63;;;9.20;99.90;;;;;;5108492;27;20043;-81
2023/03/25 02:25:49;;;;;;;28.13;3.40;;;9.20;99.90;;;;;;5090280;27;20043;-82
2023/03/25 02:28:35;;;;;;;41.85;4.55;;;9.20;99.90;;;;;;5108646;27;20481;-82
2023/03/25 02:31:24;;;;;;;34.55;4.18;;;9.30;99.90;;;;;;5091049;27;20487;-81
2023/03/25 02:34:22;;;;;;;27.60;3.08;;;9.20;99.90;;;;;;5083430;27;20055;-82
2023/03/25 02:37:02;;;;;;;28.33;4.65;;;9.20;99.90;;;;;;5108994;27;20039;-81
2023/03/25 02:39:39;;;;;;;32.47;5.97;;;9.20;99.90;;;;;;5090340;27;20078;-82
2023/03/25 02:42:12;;;;;;;28.10;3.95;;;9.20;99.90;;;;;;5090754;27;20057;-81
2023/03/25 02:45:03;;;;;;;20.85;3.45;;;9.50;99.90;;;;;;5108696;27;20558;-82
2023/03/25 02:47:45;;;;;;;25.92;3.72;;;9.30;99.90;;;;;;5125386;27;20423;-81
2023/03/25 02:50:35;;;;;;;37.27;3.60;;;9.30;99.90;;;;;;5107646;27;20054;-81
2023/03/25 02:53:07;;;;;;;28.60;4.50;;;9.30;99.90;;;;;;5091903;27;20039;-81
2023/03/25 02:55:33;;;;;;;30.02;4.22;;;9.30;99.90;;;;;;5106429;27;20070;-81
2023/03/25 02:58:03;;;;;;;26.58;5.35;;;9.30;99.90;;;;;;5108188;27;20051;-81
2023/03/25 03:00:30;;;;;;;28.55;3.63;;;9.40;99.90;;;;;;5089336;27;20051;-82
2023/03/25 03:02:58;;;;;;;25.35;5.30;;;9.30;99.90;;;;;;5107017;27;20058;-81
2023/03/25 03:05:25;;;;;;;34.22;3.75;;;9.30;99.90;;;;;;5125869;27;20039;-81
2023/03/25 03:08:02;;;;;;;21.35;3.30;;;9.30;99.90;;;;;;5125193;27;20047;-81
2023/03/25 03:10:45;;;;;;;24.20;3.42;;;9.90;99.90;;;;;;5108379;27;20051;-81
2023/03/25 03:13:37;;;;;;;19.50;3.13;;;9.30;99.90;;;;;;5106385;27;20035;-80
2023/03/25 03:16:32;;;;;;;30.25;4.32;;;9.30;99.90;;;;;;5107078;27;20043;-80
2023/03/25 03:19:26;;;;;;;30.92;3.35;;;9.30;99.90;;;;;;5080021;27;20054;-80
2023/03/25 03:22:02;;;;;;;;;;;9.30;99.90;;;;;;5106415;27;20513;-81
2023/03/25 03:24:56;;;;;;;20.75;3.05;;;9.30;99.90;;;;;;5107507;27;20392;-80
2023/03/25 03:27:32;;;;;;;22.30;3.67;;;9.30;99.90;;;;;;5107703;27;20051;-81
2023/03/25 03:30:15;;;;;;;20.73;3.47;;;9.30;99.90;;;;;;5088548;27;20047;-81
2023/03/25 03:33:00;;;;;;;21.63;3.07;;;9.30;99.90;;;;;;5107377;27;20044;-81
2023/03/25 03:35:41;;;;;;;28.88;3.70;;;9.40;99.90;;;;;;5106870;27;20050;-80
2023/03/25 03:38:12;;;;;;;29.13;3.35;;;10.00;99.90;;;;;;5105918;27;20537;-81
2023/03/25 03:40:42;;;;;;;27.88;3.53;;;9.40;99.90;;;;;;5108125;27;20051;-80
2023/03/25 03:43:15;;;;;;;29.30;3.58;;;9.40;99.90;;;;;;5124352;27;20509;-80
2023/03/25 03:45:50;;;;;;;23.35;4.68;;;9.40;99.90;;;;;;5107274;27;20051;-81
2023/03/25 03:48:31;;;;;;;21.90;3.78;;;9.40;99.90;;;;;;5090190;27;20499;-81
2023/03/25 03:51:28;;;;;;;27.30;5.50;;;9.40;99.90;;;;;;5105774;27;20050;-81
2023/03/25 03:54:09;;;;;;;28.80;4.75;;;9.40;99.90;;;;;;5106820;27;20047;-81
2023/03/25 03:57:06;;;;;;;25.20;4.18;;;9.40;99.90;;;;;;5106008;27;20035;-80
2023/03/25 04:00:08;;;;;;;34.53;4.10;;;9.40;99.90;;;;;;5105610;28;20547;-81
2023/03/25 04:02:57;;;;;;;19.50;2.67;;;9.40;99.90;;;;;;5107110;27;20138;-80
2023/03/25 04:05:29;;;;;;;31.80;4.05;;;9.30;99.90;;;;;;5113077;27;20423;-81
2023/03/25 04:08:10;;;;;;;36.00;3.47;;;9.30;99.90;;;;;;5089724;27;20047;-80
2023/03/25 04:10:45;;;;;;;31.52;4.35;;;9.30;99.90;;;;;;5106915;28;20046;-81
2023/03/25 04:13:14;;;;;;;27.50;4.78;;;9.30;99.90;;;;;;5088732;27;20071;-81
2023/03/25 04:15:41;;;;;;;31.23;4.90;;;9.30;99.90;;;;;;5105822;28;20046;-81
2023/03/25 04:18:07;;;;;;;23.83;3.38;;;9.20;99.90;;;;;;5106165;28;20046;-81
2023/03/25 04:20:35;;;;;;;28.88;5.20;;;9.20;99.90;;;;;;5088652;28;20192;-81
2023/03/25 04:23:04;;;;;;;31.95;4.15;;;9.20;99.90;;;;;;5107481;28;20046;-81
2023/03/25 04:25:31;;;;;;;27.50;4.55;;;9.70;99.90;;;;;;5088538;28;20372;-81
2023/03/25 04:27:58;;;;;;;27.15;3.63;;;9.20;99.90;;;;;;5125189;28;20385;-81
2023/03/25 04:30:27;;;;;;;31.35;3.50;;;9.20;99.90;;;;;;5123678;28;20043;-82
2023/03/25 04:32:52;;;;;;;28.25;4.80;;;9.20;99.90;;;;;;5089538;28;20035;-81
2023/03/25 04:35:19;;;;;;;34.33;3.38;;;9.60;99.90;;;;;;5106479;28;20463;-81
2023/03/25 04:37:47;;;;;;;24.20;3.22;;;9.20;99.90;;;;;;5105276;28;20047;-81
2023/03/25 04:40:17;;;;;;;24.77;3.67;;;9.20;99.90;;;;;;5090392;28;20460;-81
2023/03/25 04:42:45;;;;;;;33.83;3.33;;;9.20;99.90;;;;;;5088160;28;20614;-81
2023/03/25 04:45:15;;;;;;;31.75;4.53;;;9.30;99.90;;;;;;5106720;28;20043;-81
2023/03/25 04:47:43;;;;;;;30.05;3.92;;;9.90;99.90;;;;;;5105510;28;20043;-81
2023/03/25 04:50:22;;;;;;;25.55;3.30;;;9.20;99.90;;;;;;5105610;28;20100;-80
2023/03/25 04:52:49;;;;;;;29.42;3.47;;;9.20;99.90;;;;;;5106617;28;20080;-81
2023/03/25 04:55:18;;;;;;;32.50;3.97;;;9.30;99.90;;;;;;5104358;28;20491;-81
2023/03/25 04:57:45;;;;;;;29.95;3.47;;;9.20;99.90;;;;;;5106606;28;20046;-81
2023/03/25 05:00:13;;;;;;;24.08;3.00;;;9.20;99.90;;;;;;5123194;28;20096;-81
2023/03/25 05:02:48;;;;;;;25.92;3.33;;;9.20;99.90;;;;;;5089070;28;20099;-81
2023/03/25 05:05:19;;;;;;;32.05;3.72;;;9.20;99.90;;;;;;5105645;28;20078;-80
2023/03/25 05:07:51;;;;;;;23.52;3.45;;;9.20;99.90;;;;;;5104907;28;20039;-81
2023/03/25 05:10:22;;;;;;;26.15;2.78;;;9.20;99.90;;;;;;5125384;28;20119;-81
2023/03/25 05:12:48;;;;;;;19.70;2.80;;;9.20;99.90;;;;;;5104880;28;20035;-81
2023/03/25 05:15:18;;;;;;;29.02;4.13;;;9.20;99.90;;;;;;5124350;28;20047;-81
2023/03/25 05:17:44;;;;;;;30.42;4.22;;;9.30;99.90;;;;;;5122935;28;20404;-81
2023/03/25 05:20:10;;;;;;;35.75;4.40;;;9.90;99.90;;;;;;5104781;28;20092;-81
2023/03/25 05:22:37;;;;;;;29.77;3.72;;;9.20;99.90;;;;;;5088274;28;20047;-81
2023/03/25 05:25:08;;;;;;;32.95;3.75;;;9.20;99.90;;;;;;5087830;27;20047;-82
2023/03/25 05:27:34;;;;;;;28.25;4.18;;;9.20;99.90;;;;;;5128062;27;20035;-81
2023/03/25 05:30:01;;;;;;;17.88;3.20;;;9.20;99.90;;;;;;5125622;27;20363;-81
2023/03/25 05:32:34;;;;;;;21.83;3.78;;;9.20;99.90;;;;;;5091739;27;20104;-81
2023/03/25 05:35:01;;;;;;;23.02;3.03;;;9.20;99.90;;;;;;5107398;27;20092;-81
2023/03/25 05:37:27;;;;;;;19.83;2.88;;;9.20;99.90;;;;;;5108503;27;20498;-82
2023/03/25 05:39:53;;;;;;;24.88;3.58;;;9.90;99.90;;;;;;5109860;27;20058;-81
2023/03/25 05:42:22;;;;;;;22.35;3.50;;;9.20;99.90;;;;;;5108269;27;20047;-85
2023/03/25 05:44:52;;;;;;;21.98;3.47;;;9.30;99.90;;;;;;5060155;27;20039;-82
2023/03/25 05:47:22;;;;;;;26.38;3.75;;;9.50;99.90;;;;;;5126423;27;20046;-80
2023/03/25 05:49:49;;;;;;;31.67;5.15;;;9.30;99.90;;;;;;5127826;27;20039;-80
2023/03/25 05:52:17;;;;;;;23.63;4.28;;;9.30;99.90;;;;;;5127321;27;20184;-80
2023/03/25 05:54:44;;;;;;;41.40;6.90;;;9.60;99.90;;;;;;5126550;27;20108;-81
2023/03/25 05:57:10;;;;;;;31.08;4.85;;;10.60;99.90;;;;;;5092873;27;20039;-82
2023/03/25 05:59:37;;;;;;;22.90;4.20;;;9.30;99.90;;;;;;5107550;27;20051;-82
2023/03/25 06:02:06;;;;;;;27.92;3.75;;;10.50;99.90;;;;;;5128228;27;20062;-81
2023/03/25 06:04:40;;;;;;;38.72;4.55;;;9.30;99.90;;;;;;5108193;27;20475;-82
2023/03/25 06:07:18;;;;;;;34.75;3.67;;;9.30;99.90;;;;;;5127312;27;20780;-81
2023/03/25 06:09:48;;;;;;;21.75;4.22;;;9.30;99.90;;;;;;5109590;27;20047;-82
2023/03/25 06:12:18;;;;;;;24.75;4.15;;;9.30;99.90;;;;;;5126364;27;20531;-82
2023/03/25 06:14:45;;;;;;;36.22;4.68;;;10.70;99.90;;;;;;5092162;27;20039;-82
2023/03/25 06:17:17;;;;;;;25.23;3.72;;;9.30;99.90;;;;;;5107391;27;20092;-81
2023/03/25 06:19:43;;;;;;;32.45;5.25;;;9.30;99.90;;;;;;5108874;27;20402;-81
2023/03/25 06:22:10;;;;;;;33.03;5.05;;;9.30;99.90;;;;;;5107827;27;20047;-82
2023/03/25 06:24:41;;;;;;;26.75;4.47;;;9.30;99.90;;;;;;5091044;27;20100;-80
2023/03/25 06:27:12;;;;;;;28.77;3.78;;;9.40;99.90;;;;;;5108852;27;20059;-82
2023/03/25 06:29:40;;;;;;;24.48;3.85;;;9.40;99.90;;;;;;5106781;27;20096;-81
2023/03/25 06:32:07;;;;;;;34.47;5.10;;;9.40;99.90;;;;;;5108688;27;20051;-80
2023/03/25 06:34:33;;;;;;;22.20;3.67;;;9.40;99.90;;;;;;5106926;27;20130;-81
2023/03/25 06:37:02;;;;;;;20.75;2.80;;;9.40;99.90;;;;;;5107263;27;20055;-81
2023/03/25 06:39:32;;;;;;;20.42;2.92;;;9.80;99.90;;;;;;5126077;27;20041;-81
2023/03/25 06:41:59;;;;;;;22.02;3.13;;;9.30;99.90;;;;;;5125770;27;20070;-82
2023/03/25 06:44:26;;;;;;;16.60;2.50;;;9.10;99.90;;;;;;5127217;27;20118;-84
2023/03/25 06:46:52;;;;;;;24.08;3.75;;;9.10;99.90;;;;;;5106634;27;20047;-82
2023/03/25 06:49:18;;;;;;;25.50;3.45;;;9.00;99.90;;;;;;5074559;27;20084;-88
2023/03/25 06:51:43;;;;;;;28.55;3.95;;;8.80;99.90;;;;;;5106155;27;20047;-81
2023/03/25 06:54:09;;;;;;;37.85;5.20;;;8.80;99.90;;;;;;5107866;27;20144;-82
2023/03/25 06:56:35;;;;;;;31.55;3.75;;;8.80;99.90;;;;;;5073421;27;20518;-82
2023/03/25 06:59:01;;;;;;;28.55;3.55;;;10.10;99.90;;;;;;5107300;27;20043;-83
2023/03/25 07:01:27;;;;;;;20.48;3.28;;;9.50;99.90;;;;;;5126866;27;20525;-86
2023/03/25 07:03:52;;;;;;;22.27;3.90;;;8.90;99.90;;;;;;5106860;27;20035;-83
2023/03/25 07:06:21;;;;;;;25.30;4.13;;;8.90;99.90;;;;;;5108139;27;20510;-85
2023/03/25 07:08:48;;;;;;;23.30;4.82;;;9.10;99.90;;;;;;5106313;27;20414;-83
2023/03/25 07:11:15;;;;;;;25.58;3.03;;;9.00;99.90;;;;;;5090530;27;20458;-82
2023/03/25 07:13:41;;;;;;;23.20;2.90;;;9.90;99.90;;;;;;5090072;27;20367;-81
2023/03/25 07:16:08;;;;;;;24.60;3.67;;;9.10;99.90;;;;;;5124955;27;20041;-82
2023/03/25 07:18:34;;;;;;;18.90;3.63;;;9.20;99.90;;;;;;5091247;27;20074;-82
2023/03/25 07:21:00;;;;;;;24.58;3.60;;;9.30;99.90;;;;;;5089527;27;20092;-82
2023/03/25 07:23:26;;;;;;;21.38;3.10;;;9.40;99.90;;;;;;5073969;27;20047;-83
2023/03/25 07:25:52;;;;;;;25.65;3.25;;;9.50;99.90;;;;;;5088745;27;20037;-83
2023/03/25 07:28:18;;;;;;;23.48;4.13;;;10.20;99.90;;;;;;5107007;27;20484;-84
2023/03/25 07:30:44;;;;;;;25.42;2.70;;;10.30;99.90;;;;;;5088961;27;20043;-85
2023/03/25 07:33:09;;;;;;;21.15;2.75;;;9.30;99.90;;;;;;5072513;27;20051;-81
2023/03/25 07:35:35;;;;;;;11.57;2.50;;;9.10;99.90;;;;;;5107400;27;20047;-81
2023/03/25 07:38:01;;;;;;;19.48;3.67;;;9.10;99.90;;;;;;5124082;27;20043;-81
2023/03/25 07:40:27;;;;;;;22.23;2.67;;;9.10;99.90;;;;;;5126029;27;20050;-81
2023/03/25 07:42:53;;;;;;;19.55;4.10;;;10.10;99.90;;;;;;5105423;27;20040;-82
2023/03/25 07:45:19;;;;;;;21.95;2.83;;;9.00;99.90;;;;;;5125207;27;20047;-81
2023/03/25 07:47:48;;;;;;;18.42;3.05;;;9.30;99.90;;;;;;5088729;27;20087;-81
2023/03/25 07:50:16;;;;;;;19.02;2.40;;;8.90;99.90;;;;;;5124595;27;20043;-80
2023/03/25 07:52:42;;;;;;;19.50;2.55;;;8.90;99.90;;;;;;5125640;27;20038;-81
2023/03/25 07:55:08;;;;;;;22.73;4.20;;;10.30;99.90;;;;;;5124057;27;20043;-82
2023/03/25 07:57:34;;;;;;;12.52;2.45;;;8.90;99.90;;;;;;5107562;27;20043;-82
2023/03/25 07:59:59;;;;;;;20.20;2.60;;;8.90;99.90;;;;;;5054997;27;20031;-84
2023/03/25 08:02:25;;;;;;;12.25;2.40;;;10.30;99.90;;;;;;5106380;27;20045;-82
2023/03/25 08:04:53;;;;;;;16.27;2.78;;;8.90;99.90;;;;;;5124453;27;20031;-79
2023/03/25 08:07:20;;;;;;;19.35;2.85;;;8.90;99.90;;;;;;5124258;27;20043;-79
2023/03/25 08:09:45;;;;;;;23.33;3.03;;;9.00;99.90;;;;;;5125216;27;20043;-79
2023/03/25 08:12:11;;;;;;;17.33;2.33;;;9.50;99.90;;;;;;5105182;28;20394;-78
2023/03/25 08:14:37;;;;;;;16.67;2.42;;;9.10;99.90;;;;;;5107162;28;20047;-80
2023/03/25 08:17:05;;;;;;;19.85;2.08;;;9.10;99.90;;;;;;5088371;27;20126;-81
2023/03/25 08:19:30;;;;;;;21.48;2.83;;;9.80;99.90;;;;;;5125307;27;20084;-80
2023/03/25 08:21:56;;;;;;;19.17;2.50;;;9.20;99.90;;;;;;5123700;28;20051;-80
2023/03/25 08:24:25;;;;;;;13.90;1.98;;;9.10;99.90;;;;;;5124546;28;20058;-81
2023/03/25 08:26:52;;;;;;;23.52;2.75;;;9.10;99.90;;;;;;5124466;28;20103;-80
2023/03/25 08:29:19;;;;;;;24.27;2.65;;;9.30;99.90;;;;;;5105202;27;20047;-81
2023/03/25 08:31:45;;;;;;;17.80;3.00;;;10.50;99.90;;;;;;5106904;28;20172;-84
2023/03/25 08:34:12;;;;;;;21.55;2.85;;;9.90;99.90;;;;;;5105166;28;20039;-86
2023/03/25 08:36:38;;;;;;;11.60;2.35;;;9.60;99.90;;;;;;5090338;28;20443;-86
2023/03/25 08:39:08;;;;;;;16.08;2.83;;;9.10;99.90;;;;;;5088665;28;20050;-83
2023/03/25 08:41:36;;;;;;;15.35;3.03;;;9.10;99.90;;;;;;5105573;28;20039;-85
2023/03/25 08:44:02;;;;;;;21.00;3.90;;;9.10;99.90;;;;;;5106594;28;20051;-84
2023/03/25 08:46:27;;;;;;;12.00;1.98;;;9.10;99.90;;;;;;5105402;28;20039;-85
2023/03/25 08:48:54;;;;;;;24.45;3.90;;;9.10;99.90;;;;;;5073078;28;20545;-85
2023/03/25 08:51:20;;;;;;;15.80;3.05;;;9.10;99.90;;;;;;5104763;28;20058;-84
2023/03/25 08:53:46;;;;;;;12.95;1.95;;;10.00;99.90;;;;;;5106202;28;20090;-81
2023/03/25 08:56:12;;;;;;;8.70;2.00;;;9.20;99.90;;;;;;5071629;28;20043;-81
2023/03/25 08:58:38;;;;;;;22.02;2.72;;;9.20;99.90;;;;;;5104932;28;20391;-81
2023/03/25 09:01:05;;;;;;;17.23;2.55;;;9.40;99.90;;;;;;5107867;27;20119;-79
2023/03/25 09:03:31;;;;;;;15.05;2.25;;;9.30;99.90;;;;;;5109362;27;20055;-80
2023/03/25 09:05:57;;;;;;;20.65;2.83;;;9.40;99.90;;;;;;5093313;27;20121;-80
2023/03/25 09:08:23;;;;;;;22.80;3.47;;;9.60;99.90;;;;;;5091833;27;20176;-80
2023/03/25 09:10:49;;;;;;;14.20;2.28;;;9.80;99.90;;;;;;5128386;27;20079;-80
2023/03/25 09:13:15;;;;;;;19.25;3.13;;;9.90;99.90;;;;;;5075260;27;20113;-80
2023/03/25 09:15:40;;;;;;;21.60;2.63;;;10.00;99.90;;;;;;5109774;27;20482;-79
2023/03/25 09:18:06;;;;;;;17.33;3.03;;;10.40;99.90;;;;;;5109795;27;20349;-79
2023/03/25 09:20:32;;;;;;;14.52;2.38;;;10.20;99.90;;;;;;5091456;27;20525;-81
2023/03/25 09:22:58;;;;;;;18.25;3.67;;;10.90;99.90;;;;;;5076439;27;20047;-78
2023/03/25 09:25:24;;;;;;;18.20;2.50;;;10.60;99.90;;;;;;5126998;27;20039;-78
2023/03/25 09:27:50;;;;;;;18.52;3.88;;;10.70;99.90;;;;;;5110835;27;20039;-78
2023/03/25 09:30:16;;;;;;;13.07;2.10;;;10.80;99.90;;;;;;5104583;28;20538;-78
2023/03/25 09:32:43;;;;;;;19.63;2.30;;;10.80;99.90;;;;;;5088756;28;20054;-78
2023/03/25 09:35:09;;;;;;;11.43;1.90;;;10.80;99.90;;;;;;5105338;28;20048;-79
2023/03/25 09:37:35;;;;;;;19.00;1.45;;;10.80;99.90;;;;;;5087918;28;20047;-79
2023/03/25 09:40:00;;;;;;;17.45;2.92;;;11.50;99.90;;;;;;5106824;28;20035;-81
2023/03/25 09:43:17;;;;;;;17.60;2.28;;;11.00;99.90;;;;;;5104382;28;20113;-79
2023/03/25 09:45:47;;;;;;;17.83;2.08;;;10.70;99.90;;;;;;5080249;28;20059;-79
2023/03/25 09:48:38;;;;;;;15.65;2.97;;;11.20;99.90;;;;;;5105613;28;20052;-80
2023/03/25 09:51:05;;;;;;;10.05;1.75;;;10.60;99.90;;;;;;5105829;28;20047;-79
2023/03/25 09:53:44;;;;;;;16.98;2.75;;;10.60;99.90;;;;;;5108602;28;20391;-81
2023/03/25 09:56:24;;;;;;;16.10;1.88;;;10.60;99.90;;;;;;5106815;28;20445;-81
2023/03/25 09:58:53;;;;;;;18.08;3.05;;;10.60;99.90;;;;;;5104750;28;20040;-79
2023/03/25 10:01:34;;;;;;;14.80;2.40;;;10.70;99.90;;;;;;5106678;28;20383;-78
2023/03/25 10:04:30;;;;;;;23.63;3.13;;;10.80;99.90;;;;;;5105694;28;20127;-78
2023/03/25 10:07:01;;;;;;;18.50;2.42;;;10.90;99.90;;;;;;5105993;28;20039;-78
2023/03/25 10:09:39;;;;;;;12.30;1.80;;;10.90;99.90;;;;;;5106251;28;20513;-79
2023/03/25 10:12:23;;;;;;;14.80;2.78;;;10.90;99.90;;;;;;5102989;28;20079;-78
2023/03/25 10:15:13;;;;;;;14.45;2.70;;;10.80;99.90;;;;;;5105999;28;20061;-78
2023/03/25 10:17:57;;;;;;;19.60;2.28;;;10.70;99.90;;;;;;5104598;28;20120;-78
2023/03/25 10:20:42;;;;;;;21.40;2.58;;;10.60;99.90;;;;;;5103890;28;20503;-78
2023/03/25 10:23:20;;;;;;;21.92;2.47;;;10.60;99.90;;;;;;5088553;28;20051;-79
2023/03/25 10:25:52;;;;;;;23.88;2.88;;;10.70;99.90;;;;;;5103962;28;20545;-78
2023/03/25 10:28:32;;;;;;;16.38;2.35;;;10.70;99.90;;;;;;5105977;28;20040;-78
2023/03/25 10:30:58;;;;;;;14.60;2.45;;;10.70;99.90;;;;;;5104098;28;20522;-80
2023/03/25 10:33:44;;;;;;;20.55;2.35;;;10.70;99.90;;;;;;5103430;28;20052;-79
2023/03/25 10:36:17;;;;;;;13.98;2.58;;;10.70;99.90;;;;;;5105201;28;20043;-81
2023/03/25 10:38:45;;;;;;;22.55;2.53;;;10.60;99.90;;;;;;5103792;28;20046;-81
2023/03/25 10:41:17;;;;;;;16.05;2.10;;;10.80;99.90;;;;;;5104101;28;20251;-82
2023/03/25 10:43:43;;;;;;;14.77;2.97;;;10.80;99.90;;;;;;5087812;28;20382;-81
2023/03/25 10:46:15;;;;;;;21.23;2.55;;;10.80;99.90;;;;;;5069389;28;20043;-81
2023/03/25 10:48:41;;;;;;;16.05;2.80;;;10.90;99.90;;;;;;5088170;28;20671;-81
2023/03/25 10:51:11;;;;;;;16.45;2.58;;;10.90;99.90;;;;;;5085914;28;20348;-82
2023/03/25 10:53:38;;;;;;;15.73;2.10;;;10.90;99.90;;;;;;5105293;28;20098;-81
2023/03/25 10:56:12;;;;;;;17.58;3.28;;;10.90;99.90;;;;;;5085888;28;20131;-82
2023/03/25 10:58:40;;;;;;;15.82;2.22;;;10.90;99.90;;;;;;5103723;28;20083;-82
2023/03/25 11:01:18;;;;;;;15.32;2.33;;;10.80;99.90;;;;;;5104130;28;20057;-80
2023/03/25 11:03:48;;;;;;;16.75;2.25;;;10.80;99.90;;;;;;5102861;28;20036;-81
2023/03/25 11:06:28;;;;;;;12.63;2.13;;;10.80;99.90;;;;;;5104881;28;20052;-80
2023/03/25 11:09:14;;;;;;;17.67;2.65;;;10.90;99.90;;;;;;5086458;28;20483;-80
2023/03/25 11:11:42;;;;;;;12.02;2.03;;;11.00;99.90;;;;;;5103129;28;20440;-80
2023/03/25 11:14:09;;;;;;;18.13;2.42;;;11.10;99.90;;;;;;5054603;28;20039;-81
2023/03/25 11:16:41;;;;;;;16.67;2.55;;;11.20;99.90;;;;;;5102539;28;20139;-80
2023/03/25 11:19:16;;;;;;;10.70;1.90;;;11.30;99.90;;;;;;5087482;28;20085;-81
2023/03/25 11:21:46;;;;;;;16.17;2.03;;;11.30;99.90;;;;;;5085955;28;20503;-79
2023/03/25 11:24:16;;;;;;;19.80;2.05;;;11.40;99.90;;;;;;5086089;28;20044;-79
2023/03/25 11:26:47;;;;;;;16.33;2.55;;;11.40;99.90;;;;;;5103622;28;20039;-81
2023/03/25 11:29:17;;;;;;;15.27;2.97;;;11.50;99.90;;;;;;5086733;27;20450;-80
2023/03/25 11:31:43;;;;;;;17.40;2.00;;;11.50;99.90;;;;;;5107382;27;20055;-79
2023/03/25 11:34:11;;;;;;;10.23;1.60;;;11.40;99.90;;;;;;5089014;27;20451;-79
2023/03/25 11:36:39;;;;;;;13.32;1.77;;;11.50;99.90;;;;;;5090425;27;20448;-80
2023/03/25 11:39:16;;;;;;;15.52;2.38;;;11.60;99.90;;;;;;5072610;27;20129;-81
2023/03/25 11:41:41;;;;;;;9.95;1.80;;;11.60;99.90;;;;;;5105830;27;20469;-82
2023/03/25 11:44:28;;;;;;;18.83;2.13;;;11.60;99.90;;;;;;5073308;27;20084;-81
2023/03/25 11:47:04;;;;;;;12.00;1.83;;;11.50;99.90;;;;;;5105433;27;20043;-81
2023/03/25 11:49:36;;;;;;;10.23;1.77;;;11.60;99.90;;;;;;5106819;27;20047;-78
2023/03/25 11:52:06;;;;;;;11.90;1.67;;;11.60;99.90;;;;;;5105975;27;20494;-80
2023/03/25 11:54:34;;;;;;;17.08;2.22;;;11.60;99.90;;;;;;5105589;27;20039;-80
2023/03/25 11:57:04;;;;;;;16.00;2.35;;;11.70;99.90;;;;;;5089983;27;20046;-80
2023/03/25 11:59:41;;;;;;;14.40;2.38;;;11.70;99.90;;;;;;5105357;27;20490;-81
2023/03/25 12:02:20;;;;;;;13.38;2.00;;;11.80;99.90;;;;;;5090420;27;20134;-81
2023/03/25 12:05:12;;;;;;;10.25;1.77;;;11.90;99.90;;;;;;5105741;27;20051;-81
2023/03/25 12:07:49;;;;;;;14.05;2.65;;;12.00;99.90;;;;;;5105353;27;20129;-81
2023/03/25 12:10:19;;;;;;;11.57;1.88;;;12.10;99.90;;;;;;5106856;27;20043;-80
2023/03/25 12:13:07;;;;;;;17.85;2.00;;;12.10;99.90;;;;;;5123713;27;20039;-82
2023/03/25 12:15:41;;;;;;;11.35;1.73;;;12.00;99.90;;;;;;5088783;27;20039;-82
2023/03/25 12:18:25;;;;;;;13.30;1.88;;;12.00;99.90;;;;;;5106284;28;20051;-82
2023/03/25 12:21:09;;;;;;;12.48;3.03;;;12.00;99.90;;;;;;5105404;28;20153;-84
2023/03/25 12:23:58;;;;;;;13.05;1.75;;;12.00;99.90;;;;;;5089327;28;20043;-78
2023/03/25 12:26:38;;;;;;;11.73;2.05;;;12.00;99.90;;;;;;5106349;28;20179;-83
2023/03/25 12:29:13;;;;;;;15.30;2.75;;;12.00;99.90;;;;;;5105047;28;20051;-79
2023/03/25 12:32:02;;;;;;;10.93;2.50;;;12.00;99.90;;;;;;5106801;28;20047;-80
2023/03/25 12:34:37;;;;;;;11.40;1.58;;;12.00;99.90;;;;;;5105740;28;20095;-79
2023/03/25 12:37:54;;;;;;;12.73;1.50;;;11.90;99.90;;;;;;5128409;27;20050;-82
2023/03/25 12:40:57;;;;;;;11.40;1.65;;;11.90;99.90;;;;;;5063265;27;20413;-79
2023/03/25 12:43:51;;;;;;;9.40;1.40;;;11.80;99.90;;;;;;5109980;27;20476;-80
2023/03/25 12:46:37;;;;;;;11.57;1.65;;;11.80;99.90;;;;;;5089472;27;20078;-79
2023/03/25 12:49:41;;;;;;;13.25;2.33;;;11.80;99.90;;;;;;5129216;27;20052;-79
2023/03/25 12:52:28;;;;;;;8.57;1.48;;;11.80;99.90;;;;;;5128156;27;20039;-79
2023/03/25 12:55:15;;;;;;;10.75;1.45;;;11.80;99.90;;;;;;5127273;27;20093;-79
2023/03/25 12:58:25;;;;;;;17.13;1.85;;;11.80;99.90;;;;;;5110215;27;20047;-79
2023/03/25 13:01:20;;;;;;;14.30;2.05;;;11.70;99.90;;;;;;5063182;27;20058;-79
2023/03/25 13:04:15;;;;;;;18.00;1.80;;;11.60;99.90;;;;;;5092142;27;20061;-79
2023/03/25 13:06:52;;;;;;;10.57;1.88;;;11.40;99.90;;;;;;5109652;27;20081;-80
2023/03/25 13:09:35;;;;;;;12.05;1.88;;;11.20;99.90;;;;;;5128345;27;20043;-80